createdAt,value
2022-10-11T00:04:07.721Z,3.08
2022-10-11T00:08:20.262Z,2.88
2022-10-11T00:12:32.716Z,3.75
2022-10-11T00:16:45.335Z,3.45
2022-10-11T00:21:07.213Z,3.50
2022-10-11T00:25:20.309Z,3.38
2022-10-11T00:29:32.600Z,2.90
2022-10-11T00:33:45.564Z,3.17
2022-10-11T00:37:58.277Z,3.67
2022-10-11T00:42:15.300Z,3.10
2022-10-11T00:46:30.908Z,3.17
2022-10-11T00:50:43.378Z,3.08
2022-10-11T00:54:58.086Z,2.88
2022-10-11T00:59:17.328Z,2.95
2022-10-11T01:07:43.992Z,2.90
2022-10-11T01:12:00.087Z,3.35
2022-10-11T01:16:42.322Z,3.53
2022-10-11T01:21:16.301Z,3.30
2022-10-11T01:25:37.779Z,3.38
2022-10-11T01:30:05.237Z,3.45
2022-10-11T01:34:36.272Z,3.33
2022-10-11T01:38:53.409Z,3.78
2022-10-11T01:43:06.766Z,3.50
2022-10-11T01:47:23.990Z,3.60
2022-10-11T01:51:45.106Z,4.05
2022-10-11T01:56:05.507Z,3.15
2022-10-11T02:00:25.144Z,3.90
2022-10-11T02:09:20.760Z,2.88
2022-10-11T02:13:45.076Z,3.13
2022-10-11T02:18:01.505Z,3.35
2022-10-11T02:22:22.339Z,3.22
2022-10-11T02:26:36.937Z,3.45
2022-10-11T02:30:51.120Z,3.50
2022-10-11T02:35:03.954Z,3.10
2022-10-11T02:39:22.580Z,3.92
2022-10-11T02:43:40.263Z,4.10
2022-10-11T02:47:53.153Z,3.67
2022-10-11T02:52:07.342Z,3.50
2022-10-11T02:56:20.017Z,2.88
2022-10-11T03:00:32.366Z,3.22
2022-10-11T03:04:44.781Z,4.20
2022-10-11T03:09:03.035Z,3.07
2022-10-11T03:13:18.404Z,3.38
2022-10-11T03:17:36.610Z,3.35
2022-10-11T03:21:49.518Z,3.40
2022-10-11T03:26:02.120Z,3.13
2022-10-11T03:30:17.974Z,2.88
2022-10-11T03:34:30.692Z,3.47
2022-10-11T03:38:43.091Z,3.03
2022-10-11T03:42:57.191Z,3.50
2022-10-11T03:47:09.676Z,3.00
2022-10-11T03:51:21.966Z,3.42
2022-10-11T03:55:34.310Z,3.70
2022-10-11T03:59:46.647Z,3.45
2022-10-11T04:03:59.060Z,3.05
2022-10-11T04:08:12.418Z,3.05
2022-10-11T04:12:24.992Z,3.55
2022-10-11T04:16:39.440Z,3.38
2022-10-11T04:20:51.875Z,3.30
2022-10-11T04:25:05.580Z,3.20
2022-10-11T04:29:18.272Z,3.25
2022-10-11T04:33:30.558Z,3.42
2022-10-11T04:37:42.864Z,3.05
2022-10-11T04:41:55.142Z,3.45
2022-10-11T04:46:08.751Z,3.35
2022-10-11T04:50:21.464Z,3.63
2022-10-11T04:54:34.401Z,3.40
2022-10-11T04:58:49.015Z,3.33
2022-10-11T05:03:01.340Z,3.28
2022-10-11T05:07:13.758Z,3.05
2022-10-11T05:11:26.031Z,3.17
2022-10-11T05:15:38.299Z,3.17
2022-10-11T05:19:50.597Z,3.25
2022-10-11T05:24:03.044Z,2.92
2022-10-11T05:28:15.332Z,2.92
2022-10-11T05:32:28.174Z,3.25
2022-10-11T05:36:40.644Z,3.13
2022-10-11T05:41:01.826Z,3.58
2022-10-11T05:45:14.107Z,2.95
2022-10-11T05:49:26.487Z,3.47
2022-10-11T05:53:40.089Z,3.38
2022-10-11T05:57:56.786Z,3.30
2022-10-11T06:02:13.346Z,3.13
2022-10-11T06:06:25.728Z,3.22
2022-10-11T06:10:39.072Z,3.00
2022-10-11T06:14:51.369Z,3.47
2022-10-11T06:19:04.307Z,3.17
2022-10-11T06:23:16.561Z,3.38
2022-10-11T06:27:28.967Z,3.50
2022-10-11T06:31:41.293Z,3.40
2022-10-11T06:36:02.726Z,3.70
2022-10-11T06:40:15.316Z,3.30
2022-10-11T06:44:28.202Z,3.70
2022-10-11T06:48:42.444Z,3.47
2022-10-11T06:52:54.724Z,2.88
2022-10-11T06:57:07.075Z,2.90
2022-10-11T07:01:22.211Z,2.70
2022-10-11T07:05:35.602Z,3.08
2022-10-11T07:09:48.179Z,2.85
2022-10-11T07:14:03.048Z,3.30
2022-10-11T07:18:15.355Z,2.97
2022-10-11T07:22:28.260Z,3.38
2022-10-11T07:26:40.798Z,3.65
2022-10-11T07:30:53.389Z,2.78
2022-10-11T07:35:11.785Z,2.17
2022-10-11T07:39:24.039Z,2.83
2022-10-11T07:43:38.023Z,2.90
2022-10-11T07:47:50.332Z,2.65
2022-10-11T07:52:02.660Z,2.72
2022-10-11T07:56:17.661Z,3.20
2022-10-11T08:00:30.016Z,2.70
2022-10-11T08:04:42.293Z,2.78
2022-10-11T08:08:54.611Z,2.47
2022-10-11T08:13:07.286Z,2.78
2022-10-11T08:17:19.573Z,2.90
2022-10-11T08:21:32.436Z,2.58
2022-10-11T08:25:47.301Z,2.80
2022-10-11T08:29:59.610Z,2.60
2022-10-11T08:34:12.364Z,2.78
2022-10-11T08:38:25.036Z,2.42
2022-10-11T08:42:46.531Z,2.42
2022-10-11T08:47:12.824Z,2.65
2022-10-11T08:51:31.491Z,2.50
2022-10-11T08:55:49.316Z,2.67
2022-10-11T09:00:05.810Z,2.75
2022-10-11T09:04:18.988Z,2.65
2022-10-11T09:09:04.230Z,2.92
2022-10-11T09:13:35.654Z,3.00
2022-10-11T09:17:56.766Z,2.90
2022-10-11T09:22:30.830Z,3.33
2022-10-11T09:26:49.244Z,2.60
2022-10-11T09:31:01.606Z,2.60
2022-10-11T09:35:18.076Z,2.35
2022-10-11T09:39:36.200Z,3.10
2022-10-11T09:43:51.846Z,3.10
2022-10-11T09:48:07.503Z,3.10
2022-10-11T09:52:23.083Z,2.97
2022-10-11T09:56:41.057Z,2.70
2022-10-11T10:01:08.349Z,3.50
2022-10-11T10:05:23.908Z,2.65
2022-10-11T10:09:36.203Z,2.50
2022-10-11T10:13:52.812Z,2.22
2022-10-11T10:18:11.372Z,2.45
2022-10-11T10:22:28.176Z,2.92
2022-10-11T10:27:09.526Z,2.30
2022-10-11T10:31:25.350Z,2.72
2022-10-11T10:36:03.196Z,2.72
2022-10-11T10:40:25.684Z,2.88
2022-10-11T10:44:37.980Z,2.20
2022-10-11T10:53:51.600Z,3.10
2022-10-11T10:58:15.181Z,2.72
2022-10-11T11:02:42.502Z,2.45
2022-10-11T11:07:25.070Z,2.58
2022-10-11T11:11:55.998Z,2.42
2022-10-11T11:16:29.067Z,2.55
2022-10-11T11:21:06.494Z,2.95
2022-10-11T11:25:44.705Z,2.33
2022-10-11T11:30:11.731Z,2.78
2022-10-11T11:34:29.428Z,2.78
2022-10-11T11:38:41.653Z,2.40
2022-10-11T11:43:04.349Z,2.40
2022-10-11T11:47:33.863Z,2.60
2022-10-11T11:51:47.223Z,2.20
2022-10-11T11:56:08.085Z,2.38
2022-10-11T12:00:35.644Z,2.40
2022-10-11T12:04:50.023Z,2.45
2022-10-11T12:09:36.007Z,2.38
2022-10-11T12:13:51.601Z,2.78
2022-10-11T12:18:14.711Z,2.35
2022-10-11T12:22:30.097Z,2.95
2022-10-11T12:26:45.360Z,2.97
2022-10-11T12:31:06.963Z,2.85
2022-10-11T12:35:31.672Z,2.83
2022-10-11T12:39:49.873Z,2.50
2022-10-11T12:44:10.544Z,2.60
2022-10-11T12:48:41.063Z,3.20
2022-10-11T12:53:12.889Z,2.78
2022-10-11T12:57:51.275Z,2.67
2022-10-11T13:02:04.670Z,2.75
2022-10-11T13:06:27.903Z,2.75
2022-10-11T13:10:45.105Z,2.67
2022-10-11T13:15:09.248Z,2.65
2022-10-11T13:19:24.124Z,2.95
2022-10-11T13:23:39.648Z,3.08
2022-10-11T13:27:54.153Z,3.10
2022-10-11T13:32:17.311Z,2.97
2022-10-11T13:36:29.933Z,3.42
2022-10-11T13:40:42.287Z,3.90
2022-10-11T13:44:54.848Z,3.80
2022-10-11T13:49:30.331Z,3.72
2022-10-11T13:53:59.275Z,3.85
2022-10-11T13:58:18.948Z,4.07
2022-10-11T14:02:33.476Z,3.83
2022-10-11T14:06:51.385Z,4.03
2022-10-11T14:11:06.497Z,4.32
2022-10-11T14:15:28.400Z,3.85
2022-10-11T14:19:42.978Z,4.10
2022-10-11T14:23:59.096Z,3.85
2022-10-11T14:28:13.784Z,5.00
2022-10-11T14:32:34.790Z,3.20
2022-10-11T14:36:47.575Z,3.40
2022-10-11T14:40:59.837Z,3.75
2022-10-11T14:45:12.188Z,3.78
2022-10-11T14:49:27.143Z,3.70
2022-10-11T14:53:42.837Z,3.22
2022-10-11T14:57:56.109Z,2.92
2022-10-11T15:02:11.801Z,3.00
2022-10-11T15:06:37.603Z,3.03
2022-10-11T15:10:49.972Z,3.15
2022-10-11T15:15:02.296Z,3.22
2022-10-11T15:19:17.119Z,2.72
2022-10-11T15:23:29.497Z,3.30
2022-10-11T15:27:43.151Z,3.08
2022-10-11T15:31:55.486Z,3.50
2022-10-11T15:36:12.076Z,3.53
2022-10-11T15:40:36.169Z,3.33
2022-10-11T15:44:48.478Z,3.28
2022-10-11T15:49:05.901Z,3.03
2022-10-11T15:53:22.154Z,3.67
2022-10-11T15:57:34.437Z,3.75
2022-10-11T16:01:47.696Z,2.90
2022-10-11T16:06:04.892Z,3.35
2022-10-11T16:10:18.921Z,3.95
2022-10-11T16:14:31.211Z,3.45
2022-10-11T16:18:43.858Z,3.42
2022-10-11T16:22:56.205Z,3.75
2022-10-11T16:27:08.523Z,3.83
2022-10-11T16:31:21.729Z,4.03
2022-10-11T16:35:34.118Z,3.50
2022-10-11T16:39:47.351Z,4.43
2022-10-11T16:43:59.633Z,4.28
2022-10-11T16:48:11.947Z,4.70
2022-10-11T16:52:24.254Z,4.15
2022-10-11T16:56:39.877Z,4.32
2022-10-11T17:00:52.601Z,4.43
2022-10-11T17:05:05.585Z,3.70
2022-10-11T17:09:18.337Z,4.60
2022-10-11T17:13:31.575Z,4.72
2022-10-11T17:17:43.857Z,4.38
2022-10-11T17:21:56.412Z,5.53
2022-10-11T17:26:13.273Z,5.43
2022-10-11T17:30:26.901Z,6.05
2022-10-11T17:34:39.225Z,6.85
2022-10-11T17:38:53.685Z,7.18
2022-10-11T17:43:05.945Z,6.93
2022-10-11T17:47:18.239Z,6.95
2022-10-11T17:51:30.544Z,7.43
2022-10-11T17:55:43.429Z,7.47
2022-10-11T17:59:55.733Z,6.07
2022-10-11T18:04:08.533Z,7.07
2022-10-11T18:08:20.811Z,6.88
2022-10-11T18:12:33.156Z,6.70
2022-10-11T18:16:45.640Z,6.72
2022-10-11T18:20:58.026Z,6.57
2022-10-11T18:25:10.403Z,6.60
2022-10-11T18:29:22.725Z,7.00
2022-10-11T18:33:37.579Z,7.55
2022-10-11T18:37:51.672Z,7.50
2022-10-11T18:42:05.422Z,6.38
2022-10-11T18:46:18.701Z,6.63
2022-10-11T18:50:35.659Z,6.88
2022-10-11T18:54:47.937Z,6.50
2022-10-11T18:59:00.637Z,7.00
2022-10-11T19:03:12.887Z,6.80
2022-10-11T19:07:25.208Z,6.85
2022-10-11T19:11:38.586Z,6.82
2022-10-11T19:15:50.859Z,7.00
2022-10-11T19:20:03.257Z,7.30
2022-10-11T19:24:21.160Z,7.55
2022-10-11T19:28:33.731Z,7.13
2022-10-11T19:32:46.023Z,7.97
2022-10-11T19:37:01.583Z,7.50
2022-10-11T19:41:18.722Z,7.80
2022-10-11T19:45:31.080Z,7.70
2022-10-11T19:49:43.336Z,7.85
2022-10-11T19:54:00.614Z,7.13
2022-10-11T19:58:12.892Z,8.00
2022-10-11T20:02:25.164Z,6.90
2022-10-11T20:06:41.008Z,7.90
2022-10-11T20:10:56.565Z,7.38
2022-10-11T20:15:09.199Z,7.78
2022-10-11T20:19:26.457Z,6.93
2022-10-11T20:23:45.037Z,7.55
2022-10-11T20:27:57.354Z,7.85
2022-10-11T20:32:09.705Z,7.00
2022-10-11T20:36:23.726Z,7.75
2022-10-11T20:40:36.053Z,8.23
2022-10-11T20:44:54.366Z,8.30
2022-10-11T20:49:11.573Z,8.88
2022-10-11T20:53:25.520Z,7.63
2022-10-11T20:57:37.816Z,7.97
2022-10-11T21:01:50.121Z,7.68
2022-10-11T21:06:02.469Z,8.02
2022-10-11T21:10:14.737Z,7.47
2022-10-11T21:14:27.425Z,8.43
2022-10-11T21:18:40.262Z,8.32
2022-10-11T21:22:52.536Z,8.55
2022-10-11T21:27:04.814Z,8.32
2022-10-11T21:31:18.977Z,9.40
2022-10-11T21:35:31.908Z,9.07
2022-10-11T21:39:44.221Z,8.95
2022-10-11T21:43:56.886Z,8.27
2022-10-11T21:48:09.160Z,8.20
2022-10-11T21:52:21.489Z,9.20
2022-10-11T21:56:33.890Z,9.30
2022-10-11T22:00:47.601Z,10.63
2022-10-11T22:04:59.941Z,9.07
2022-10-11T22:09:12.303Z,9.63
2022-10-11T22:13:35.447Z,8.95
2022-10-11T22:17:47.882Z,8.63
2022-10-11T22:22:00.153Z,10.60
2022-10-11T22:26:17.897Z,9.77
2022-10-11T22:30:30.645Z,8.93
2022-10-11T22:34:42.976Z,9.38
2022-10-11T22:38:55.502Z,9.05
2022-10-11T22:43:07.768Z,8.82
2022-10-11T22:47:20.028Z,8.77
2022-10-11T22:51:32.370Z,8.52
2022-10-11T22:55:44.683Z,9.45
2022-10-11T22:59:56.985Z,9.57
2022-10-11T23:04:09.263Z,10.07
2022-10-11T23:08:21.581Z,9.43
2022-10-11T23:12:33.925Z,10.32
2022-10-11T23:16:47.307Z,10.18
2022-10-11T23:21:03.205Z,10.25
2022-10-11T23:25:15.885Z,10.48
2022-10-11T23:29:31.136Z,10.30
2022-10-11T23:33:47.133Z,11.30
2022-10-11T23:37:59.385Z,10.25
2022-10-11T23:42:11.747Z,10.25
2022-10-11T23:46:24.435Z,10.05
2022-10-11T23:50:36.727Z,10.48
2022-10-11T23:54:49.065Z,11.00
2022-10-11T23:59:02.360Z,10.07
